Time;durP1;ratioP1;P1;durP2;ratioP2;P2;SDS_P1;SDS_P2;PMS_P1;PMS_P2;Temp;Humidity;BMP_temperature;BMP_pressure;BME280_temperature;BME280_humidity;BME280_pressure;Samples;Min_cycle;Max_cycle;Signal;HPM_P1;HPM_P2
2022/06/05 00:01:53;;;;;;;18.85;13.48;;;17.20;99.90;;;;;;6165349;23;20087;-85
2022/06/05 00:05:27;;;;;;;14.65;13.10;;;17.10;99.90;;;;;;6157364;23;20029;-85
2022/06/05 00:08:26;;;;;;;16.85;13.93;;;17.00;99.90;;;;;;6184878;23;20053;-85
2022/06/05 00:11:14;;;;;;;17.13;13.98;;;16.90;99.90;;;;;;6199359;23;20028;-87
2022/06/05 00:14:04;;;;;;;16.75;15.05;;;16.90;99.90;;;;;;6178620;23;20029;-85
2022/06/05 00:16:51;;;;;;;16.52;14.82;;;16.80;99.90;;;;;;6197658;23;20429;-83
2022/06/05 00:19:44;;;;;;;17.08;14.63;;;16.90;99.90;;;;;;6193913;23;20033;-83
2022/06/05 00:22:34;;;;;;;15.73;14.05;;;16.90;99.90;;;;;;6195531;23;20081;-85
2022/06/05 00:25:24;;;;;;;16.23;14.35;;;16.90;99.90;;;;;;6197925;23;20024;-83
2022/06/05 00:28:25;;;;;;;16.25;14.52;;;16.90;99.90;;;;;;6179008;23;20029;-83
2022/06/05 00:31:38;;;;;;;16.55;14.65;;;16.80;99.90;;;;;;6208845;22;20048;-82
2022/06/05 00:34:32;;;;;;;;;;;16.80;99.90;;;;;;6197940;23;20404;-86
2022/06/05 00:37:28;;;;;;;;;;;16.70;99.90;;;;;;6193276;23;19928;-84
2022/06/05 00:40:51;;;;;;;17.67;15.23;;;16.70;99.90;;;;;;6194160;23;19916;-85
2022/06/05 00:43:40;;;;;;;17.35;15.55;;;16.70;99.90;;;;;;6185223;23;20060;-86
2022/06/05 00:46:29;;;;;;;17.35;15.02;;;16.70;99.90;;;;;;6185428;23;20040;-86
2022/06/05 00:49:17;;;;;;;16.98;15.20;;;16.70;99.90;;;;;;6185245;23;20065;-85
2022/06/05 00:52:11;;;;;;;18.08;14.70;;;16.80;99.90;;;;;;6190935;23;20052;-86
2022/06/05 00:55:02;;;;;;;16.55;14.82;;;16.80;99.90;;;;;;6177604;23;20120;-86
2022/06/05 00:57:56;;;;;;;17.02;14.60;;;16.80;99.90;;;;;;6177078;23;20053;-86
2022/06/05 01:00:48;;;;;;;17.42;14.15;;;16.70;99.90;;;;;;6176426;23;20033;-83
2022/06/05 01:03:36;;;;;;;17.25;14.35;;;16.70;99.90;;;;;;6182089;22;20017;-83
2022/06/05 01:06:24;;;;;;;16.45;14.75;;;16.70;99.90;;;;;;6197636;22;20047;-86
2022/06/05 01:09:14;;;;;;;16.83;14.75;;;16.60;99.90;;;;;;6176218;23;20036;-84
2022/06/05 01:12:04;;;;;;;16.83;14.68;;;16.50;99.90;;;;;;6197256;23;20124;-87
2022/06/05 01:15:10;;;;;;;18.38;15.43;;;16.50;99.90;;;;;;6196479;23;20025;-86
2022/06/05 01:18:10;;;;;;;17.48;14.75;;;16.60;99.90;;;;;;6191614;23;20025;-87
2022/06/05 01:21:36;;;;;;;18.23;15.20;;;16.50;99.90;;;;;;6181942;23;20104;-87
2022/06/05 01:24:54;;;;;;;17.30;14.38;;;16.50;99.90;;;;;;6162144;23;20033;-86
2022/06/05 01:27:46;;;;;;;16.85;15.02;;;16.50;99.90;;;;;;6182706;23;20033;-88
2022/06/05 01:30:44;;;;;;;20.65;15.45;;;16.40;99.90;;;;;;6182397;23;20025;-88
2022/06/05 01:33:37;;;;;;;18.17;14.73;;;16.30;99.90;;;;;;6184398;23;20083;-85
2022/06/05 01:36:35;;;;;;;;;;;16.30;99.90;;;;;;6162673;23;20029;-85
2022/06/05 01:39:33;;;;;;;19.85;15.27;;;16.30;99.90;;;;;;6182992;23;19920;-84
2022/06/05 01:43:07;;;;;;;18.52;15.27;;;16.30;99.90;;;;;;6184295;23;20025;-83
2022/06/05 01:46:06;;;;;;;16.45;14.35;;;16.30;99.90;;;;;;6037607;23;20023;-85
2022/06/05 01:49:11;;;;;;;18.05;14.82;;;16.40;99.90;;;;;;6166531;23;20026;-85
2022/06/05 01:52:08;;;;;;;17.40;14.43;;;16.40;99.90;;;;;;6185439;23;20171;-86
2022/06/05 01:55:06;;;;;;;17.30;14.07;;;16.40;99.90;;;;;;6184083;23;20055;-85
2022/06/05 01:57:59;;;;;;;17.42;14.48;;;16.40;99.90;;;;;;6187816;23;20103;-86
2022/06/05 02:01:02;;;;;;;22.00;15.32;;;16.40;99.90;;;;;;6186376;23;20043;-86
2022/06/05 02:04:06;;;;;;;16.92;14.40;;;16.40;99.90;;;;;;6183820;23;20083;-82
2022/06/05 02:06:58;;;;;;;19.17;13.23;;;16.40;99.90;;;;;;6164480;23;20040;-85
2022/06/05 02:09:53;;;;;;;17.10;14.25;;;16.50;99.90;;;;;;6185473;23;20387;-84
2022/06/05 02:12:43;;;;;;;15.60;14.00;;;16.50;99.90;;;;;;6187838;23;20332;-83
2022/06/05 02:15:31;;;;;;;15.20;13.60;;;16.50;99.90;;;;;;6189222;23;20266;-84
2022/06/05 02:18:22;;;;;;;15.32;13.82;;;16.60;99.90;;;;;;6189267;23;20021;-84
2022/06/05 02:21:09;;;;;;;16.23;14.27;;;16.60;99.90;;;;;;6186806;23;20025;-82
2022/06/05 02:23:57;;;;;;;17.02;14.52;;;16.60;99.90;;;;;;6194538;23;20025;-86
2022/06/05 02:26:44;;;;;;;19.75;14.05;;;16.60;99.90;;;;;;6161093;23;20044;-84
2022/06/05 02:29:32;;;;;;;15.50;13.52;;;16.60;99.90;;;;;;6184957;23;20040;-83
2022/06/05 02:32:59;;;;;;;16.77;13.80;;;16.60;99.90;;;;;;6186558;23;20036;-85
2022/06/05 02:36:30;;;;;;;16.92;14.15;;;16.50;99.90;;;;;;6184185;23;20033;-87
2022/06/05 02:39:54;;;;;;;18.35;13.63;;;16.60;99.90;;;;;;6185592;23;20028;-86
2022/06/05 02:43:06;;;;;;;15.13;13.57;;;16.50;99.90;;;;;;6163805;23;20060;-84
2022/06/05 02:46:21;;;;;;;17.48;13.95;;;16.60;99.90;;;;;;6162772;23;20104;-85
2022/06/05 02:49:33;;;;;;;15.27;13.65;;;16.70;99.90;;;;;;6186557;23;20032;-85
2022/06/05 02:52:23;;;;;;;16.77;14.43;;;16.70;99.90;;;;;;6164092;23;20133;-86
2022/06/05 02:55:17;;;;;;;18.70;14.43;;;16.70;99.90;;;;;;6185802;23;20686;-84
2022/06/05 02:58:06;;;;;;;20.63;14.48;;;16.60;99.90;;;;;;6184799;23;20025;-85
2022/06/05 03:03:59;;;;;;;18.73;14.57;;;16.60;99.90;;;;;;6190652;23;20028;-83
2022/06/05 03:06:46;;;;;;;16.52;14.57;;;16.60;99.90;;;;;;6184988;23;20368;-84
2022/06/05 03:09:35;;;;;;;16.95;14.48;;;16.60;99.90;;;;;;6165399;23;20108;-87
2022/06/05 03:12:25;;;;;;;17.05;13.05;;;16.60;99.90;;;;;;6163510;23;20389;-82
2022/06/05 03:15:15;;;;;;;16.58;13.88;;;16.60;99.90;;;;;;6165425;23;20021;-86
2022/06/05 03:18:02;;;;;;;18.25;13.70;;;16.60;99.90;;;;;;6185658;23;20036;-88
2022/06/05 03:20:49;;;;;;;19.67;14.80;;;16.60;99.90;;;;;;6184301;23;20029;-87
2022/06/05 03:23:37;;;;;;;16.60;14.85;;;16.60;99.90;;;;;;6183736;23;20070;-84
2022/06/05 03:26:24;;;;;;;16.70;14.98;;;16.60;99.90;;;;;;6183668;23;20444;-83
2022/06/05 03:29:12;;;;;;;15.80;14.20;;;16.50;99.90;;;;;;6183372;23;20032;-84
2022/06/05 03:31:59;;;;;;;18.98;14.48;;;16.50;99.90;;;;;;6185556;23;20036;-85
2022/06/05 03:34:46;;;;;;;20.60;14.43;;;16.50;99.90;;;;;;6184791;23;20025;-87
2022/06/05 03:37:36;;;;;;;15.35;13.70;;;16.50;99.90;;;;;;6184500;23;20032;-86
2022/06/05 03:40:25;;;;;;;15.40;13.77;;;16.50;99.90;;;;;;6185517;23;20029;-86
2022/06/05 03:43:13;;;;;;;16.40;13.45;;;16.50;99.90;;;;;;6185213;23;20139;-87
2022/06/05 03:46:07;;;;;;;16.30;13.63;;;16.60;99.90;;;;;;6165472;23;20297;-85
2022/06/05 03:48:54;;;;;;;13.68;12.27;;;16.60;99.90;;;;;;6162932;23;20392;-86
2022/06/05 03:51:42;;;;;;;13.65;12.25;;;16.70;99.90;;;;;;6183596;23;20021;-86
2022/06/05 03:54:30;;;;;;;15.05;12.73;;;16.80;99.90;;;;;;6183206;23;20044;-89
2022/06/05 03:57:17;;;;;;;13.98;12.18;;;16.80;99.90;;;;;;6183161;23;20040;-86
2022/06/05 04:00:11;;;;;;;14.35;12.85;;;16.80;99.90;;;;;;6182661;23;20365;-85
2022/06/05 04:03:01;;;;;;;14.27;11.93;;;16.90;99.90;;;;;;6192297;23;20037;-85
2022/06/05 04:05:48;;;;;;;15.30;13.27;;;16.80;99.90;;;;;;6190329;23;20095;-85
2022/06/05 04:08:39;;;;;;;13.63;12.23;;;16.80;99.90;;;;;;6183970;23;20036;-85
2022/06/05 04:11:30;;;;;;;17.88;13.45;;;16.80;99.90;;;;;;6162474;23;20421;-85
2022/06/05 04:14:17;;;;;;;13.23;11.88;;;16.80;99.90;;;;;;6183548;23;20029;-85
2022/06/05 04:17:04;;;;;;;15.13;12.75;;;16.80;99.90;;;;;;6164137;23;20025;-88
2022/06/05 04:19:52;;;;;;;14.88;12.88;;;16.70;99.90;;;;;;6183159;23;20080;-86
2022/06/05 04:22:41;;;;;;;14.60;12.82;;;16.70;99.90;;;;;;6162731;23;20108;-86
2022/06/05 04:25:29;;;;;;;15.35;13.85;;;16.70;99.90;;;;;;6184715;23;20080;-88
2022/06/05 04:28:16;;;;;;;14.90;13.27;;;16.70;99.90;;;;;;6184976;23;20053;-88
2022/06/05 04:31:04;;;;;;;15.75;12.73;;;16.70;99.90;;;;;;6182731;23;20029;-86
2022/06/05 04:33:54;;;;;;;15.15;12.88;;;16.70;99.90;;;;;;6183955;23;20348;-88
2022/06/05 04:36:42;;;;;;;13.80;12.32;;;16.80;99.90;;;;;;6184811;23;20418;-88
2022/06/05 04:39:30;;;;;;;17.15;13.25;;;16.80;99.90;;;;;;6163269;23;20021;-84
2022/06/05 04:42:17;;;;;;;15.95;13.75;;;16.90;99.90;;;;;;6184532;23;20098;-84
2022/06/05 04:45:05;;;;;;;15.85;13.77;;;16.90;99.90;;;;;;6164251;23;20612;-87
2022/06/05 04:47:52;;;;;;;19.60;15.50;;;16.90;99.90;;;;;;6182998;23;20028;-86
2022/06/05 04:50:41;;;;;;;26.92;17.42;;;16.80;99.90;;;;;;6184584;23;20032;-84
2022/06/05 04:53:28;;;;;;;23.67;19.38;;;16.60;99.90;;;;;;6161383;23;20025;-81
2022/06/05 04:56:19;;;;;;;25.63;20.23;;;16.50;99.90;;;;;;6162830;23;20025;-83
2022/06/05 04:59:06;;;;;;;24.77;22.13;;;16.50;99.90;;;;;;6183495;23;20049;-83
2022/06/05 05:01:55;;;;;;;30.73;24.67;;;16.40;99.90;;;;;;6184748;23;20025;-82
2022/06/05 05:04:42;;;;;;;35.53;26.20;;;16.30;99.90;;;;;;6164078;23;20374;-84
2022/06/05 05:07:29;;;;;;;34.45;27.75;;;16.30;99.90;;;;;;6162985;23;20033;-83
2022/06/05 05:10:16;;;;;;;36.58;30.15;;;16.30;99.90;;;;;;6162406;23;20147;-81
2022/06/05 05:13:06;;;;;;;34.35;28.83;;;16.20;99.90;;;;;;6182855;23;20021;-81
2022/06/05 05:15:55;;;;;;;43.30;33.75;;;16.20;99.90;;;;;;6184446;23;20029;-81
2022/06/05 05:18:44;;;;;;;48.50;34.83;;;16.20;99.90;;;;;;6182254;23;20103;-81
2022/06/05 05:21:32;;;;;;;56.00;38.00;;;16.10;99.90;;;;;;6160766;23;20029;-79
2022/06/05 05:24:19;;;;;;;53.30;38.25;;;16.10;99.90;;;;;;6185189;23;20049;-82
2022/06/05 05:27:06;;;;;;;52.72;39.13;;;16.10;99.90;;;;;;6183466;23;20029;-82
2022/06/05 05:29:58;;;;;;;57.38;40.47;;;16.00;99.90;;;;;;6186335;23;20029;-82
2022/06/05 05:32:45;;;;;;;70.78;44.63;;;16.00;99.90;;;;;;6185013;23;20107;-81
2022/06/05 05:35:33;;;;;;;86.32;49.47;;;16.00;99.90;;;;;;6184674;23;20091;-82
2022/06/05 05:38:22;;;;;;;74.72;50.30;;;16.00;99.90;;;;;;6184690;23;20025;-82
2022/06/05 05:44:18;;;;;;;76.43;49.65;;;16.10;99.90;;;;;;6185832;23;20025;-82
2022/06/05 05:47:10;;;;;;;77.68;52.47;;;16.00;99.90;;;;;;6185320;23;20389;-83
2022/06/05 05:50:00;;;;;;;68.30;48.38;;;16.00;99.90;;;;;;6185137;23;20100;-83
2022/06/05 05:52:49;;;;;;;68.03;49.53;;;15.90;99.90;;;;;;6164353;23;20164;-81
2022/06/05 05:55:39;;;;;;;68.47;48.55;;;15.90;99.90;;;;;;6163374;23;20025;-85
2022/06/05 05:58:26;;;;;;;61.05;43.17;;;15.90;99.90;;;;;;6187394;23;20114;-81
2022/06/05 06:01:13;;;;;;;61.65;42.15;;;15.90;99.90;;;;;;6167111;23;20302;-82
2022/06/05 06:04:01;;;;;;;49.28;36.60;;;15.90;99.90;;;;;;6197648;23;20028;-83
2022/06/05 06:06:49;;;;;;;36.28;27.45;;;15.90;99.90;;;;;;6199898;23;20033;-85
2022/06/05 06:09:37;;;;;;;27.65;22.60;;;15.90;99.90;;;;;;6197226;23;20163;-84
2022/06/05 06:12:24;;;;;;;30.63;23.20;;;16.10;99.90;;;;;;6197936;23;20025;-83
2022/06/05 06:15:12;;;;;;;26.63;19.88;;;16.10;99.90;;;;;;6184279;23;20024;-81
2022/06/05 06:17:59;;;;;;;22.35;17.20;;;16.10;99.90;;;;;;6188221;23;20079;-81
2022/06/05 06:20:47;;;;;;;22.65;16.70;;;16.10;99.90;;;;;;6198423;23;20044;-82
2022/06/05 06:23:40;;;;;;;23.30;18.58;;;16.10;99.90;;;;;;6177721;23;20067;-84
2022/06/05 06:26:28;;;;;;;;;;;16.00;99.90;;;;;;6177269;23;20049;-82
2022/06/05 06:29:15;;;;;;;19.10;14.63;;;16.00;99.90;;;;;;6175943;23;19927;-85
2022/06/05 06:32:03;;;;;;;19.85;14.70;;;16.00;99.90;;;;;;6184926;23;20087;-86
2022/06/05 06:34:55;;;;;;;15.02;13.25;;;16.00;99.90;;;;;;6164747;23;20433;-82
2022/06/05 06:37:43;;;;;;;17.80;12.63;;;16.00;99.90;;;;;;6184677;23;20044;-82
2022/06/05 06:40:35;;;;;;;12.30;10.23;;;16.00;99.90;;;;;;6184064;23;20033;-79
2022/06/05 06:43:22;;;;;;;13.40;10.70;;;16.00;99.90;;;;;;6187145;23;20032;-81
2022/06/05 06:46:13;;;;;;;14.25;10.10;;;16.00;99.90;;;;;;6184923;23;20301;-82
2022/06/05 06:49:00;;;;;;;15.30;10.95;;;16.00;99.90;;;;;;6192074;23;20048;-82
2022/06/05 06:51:47;;;;;;;20.98;9.88;;;16.00;99.90;;;;;;6193917;23;20278;-82
2022/06/05 07:30:15;;;;;;;16.75;12.82;;;15.90;99.90;;;;;;6183510;23;20025;-82
2022/06/05 07:33:02;;;;;;;16.33;11.73;;;16.00;99.90;;;;;;6143210;23;20031;-80
2022/06/05 07:35:59;;;;;;;18.20;12.50;;;16.00;99.90;;;;;;6183613;23;20058;-81
2022/06/05 07:38:46;;;;;;;14.65;11.45;;;16.10;99.90;;;;;;6184631;23;20044;-80
2022/06/05 07:41:39;;;;;;;15.05;10.43;;;16.10;99.90;;;;;;6182480;23;20032;-80
2022/06/05 07:44:26;;;;;;;15.63;10.48;;;16.30;99.90;;;;;;6164912;23;20044;-80
2022/06/05 07:47:16;;;;;;;12.48;9.55;;;16.40;99.90;;;;;;6184721;23;20025;-82
2022/06/05 07:50:04;;;;;;;12.82;8.80;;;16.50;99.90;;;;;;6164372;23;20033;-81
2022/06/05 07:55:57;;;;;;;9.52;8.20;;;16.60;99.90;;;;;;6187098;23;20025;-80
2022/06/05 07:58:44;;;;;;;9.32;8.00;;;16.80;99.90;;;;;;6185785;23;20487;-80
2022/06/05 08:01:32;;;;;;;9.05;6.75;;;17.10;99.90;;;;;;6184569;23;20120;-80
2022/06/05 08:04:21;;;;;;;6.72;5.00;;;17.20;99.90;;;;;;6165483;23;20425;-78
2022/06/05 08:07:13;;;;;;;;;;;17.30;99.90;;;;;;6185177;23;20039;-80
2022/06/05 08:10:01;;;;;;;6.97;5.18;;;17.40;99.90;;;;;;6184962;23;19916;-80
2022/06/05 08:12:50;;;;;;;5.22;3.95;;;17.70;99.90;;;;;;6185388;23;20117;-80
2022/06/05 08:15:37;;;;;;;4.68;3.38;;;18.10;99.90;;;;;;6184891;23;20116;-80
2022/06/05 08:18:24;;;;;;;5.07;4.05;;;18.20;99.90;;;;;;6165387;23;20080;-80
2022/06/05 08:21:12;;;;;;;4.22;3.40;;;18.30;99.90;;;;;;6184663;23;20309;-80
2022/06/05 08:24:04;;;;;;;6.40;3.78;;;18.50;99.90;;;;;;6165377;23;20035;-80
2022/06/05 08:26:52;;;;;;;;;;;18.90;99.90;;;;;;6166042;23;20021;-80
2022/06/05 08:29:42;;;;;;;4.03;3.28;;;19.30;99.90;;;;;;6165132;23;19938;-82
2022/06/05 08:32:32;;;;;;;5.35;3.10;;;19.60;99.90;;;;;;6186626;23;20021;-81
2022/06/05 08:35:22;;;;;;;3.72;2.65;;;20.10;99.90;;;;;;6184124;23;20083;-83
2022/06/05 08:41:27;;;;;;;6.68;3.30;;;21.20;99.90;;;;;;6187648;23;20029;-82
2022/06/05 08:44:38;;;;;;;5.25;3.30;;;22.30;99.90;;;;;;6184162;23;20103;-83
2022/06/05 08:47:31;;;;;;;6.20;3.10;;;22.20;99.90;;;;;;6164269;23;20060;-82
2022/06/05 08:50:44;;;;;;;7.53;3.85;;;22.50;99.90;;;;;;6183096;23;20029;-82
2022/06/05 08:53:50;;;;;;;6.05;3.28;;;22.10;99.90;;;;;;6186338;23;20297;-83
2022/06/05 08:56:47;;;;;;;4.45;3.03;;;22.00;99.90;;;;;;6165623;23;20021;-84
2022/06/05 08:59:58;;;;;;;4.53;2.67;;;22.60;99.90;;;;;;6187401;23;20025;-82
2022/06/05 09:03:02;;;;;;;5.10;2.83;;;23.10;99.90;;;;;;6188180;23;20033;-87
2022/06/05 09:06:12;;;;;;;2.78;2.40;;;23.40;99.90;;;;;;6188111;23;20131;-82
2022/06/05 09:09:06;;;;;;;5.75;2.97;;;22.50;99.90;;;;;;6187535;23;20032;-84
2022/06/05 09:12:11;;;;;;;4.10;2.33;;;22.10;99.90;;;;;;6185838;23;20021;-85
2022/06/05 09:15:05;;;;;;;3.60;2.17;;;22.10;99.90;;;;;;6187009;23;20032;-85
2022/06/05 09:17:56;;;;;;;6.00;2.40;;;22.10;99.90;;;;;;6167153;23;20025;-80
2022/06/05 09:20:53;;;;;;;2.75;1.88;;;21.40;99.90;;;;;;6165647;23;20025;-81
2022/06/05 09:23:40;;;;;;;4.82;1.92;;;21.00;99.90;;;;;;6186649;23;20048;-82
2022/06/05 09:26:45;;;;;;;4.97;1.95;;;20.90;99.90;;;;;;6185444;23;20047;-81
2022/06/05 09:29:37;;;;;;;2.83;1.50;;;20.60;99.90;;;;;;6188175;23;20104;-82
2022/06/05 09:32:25;;;;;;;;;;;20.60;99.90;;;;;;6167094;23;20017;-82
2022/06/05 09:35:12;;;;;;;6.88;1.90;;;21.00;99.90;;;;;;6186088;23;19926;-82
2022/06/05 09:37:59;;;;;;;5.57;1.55;;;21.80;99.90;;;;;;6186642;23;20037;-81
2022/06/05 09:41:06;;;;;;;5.13;2.03;;;22.60;99.90;;;;;;6166101;23;20025;-85
2022/06/05 09:44:10;;;;;;;2.53;1.60;;;23.30;99.90;;;;;;6163645;23;20017;-82
2022/06/05 09:46:59;;;;;;;3.22;1.60;;;23.80;99.90;;;;;;6185254;23;20096;-85
2022/06/05 09:49:51;;;;;;;3.65;1.67;;;24.10;99.90;;;;;;6184989;23;20098;-83
2022/06/05 09:52:41;;;;;;;5.28;2.10;;;24.20;99.90;;;;;;6164793;23;20048;-84
2022/06/05 09:55:55;;;;;;;2.75;1.70;;;24.30;99.90;;;;;;6165417;23;20025;-83
2022/06/05 09:58:57;;;;;;;2.45;1.75;;;25.40;99.90;;;;;;6187309;23;20017;-83
2022/06/05 10:01:56;;;;;;;5.00;1.83;;;26.10;99.90;;;;;;6167930;23;20025;-84
2022/06/05 10:04:44;;;;;;;4.75;2.00;;;25.40;99.90;;;;;;6184905;23;20039;-85
2022/06/05 10:08:04;;;;;;;3.42;2.40;;;23.50;99.90;;;;;;6169944;23;20333;-82
2022/06/05 10:10:56;;;;;;;4.60;2.20;;;22.30;99.90;;;;;;6186676;23;20029;-83
2022/06/05 10:14:05;;;;;;;6.10;2.55;;;21.80;99.90;;;;;;6186262;23;20025;-81
2022/06/05 10:17:41;;;;;;;5.60;3.05;;;21.20;99.90;;;;;;6185873;23;20787;-85
2022/06/05 10:20:56;;;;;;;3.28;2.40;;;20.70;99.90;;;;;;6189224;23;20035;-81
2022/06/05 10:23:46;;;;;;;8.48;3.20;;;20.40;99.90;;;;;;6189227;23;20078;-84
2022/06/05 10:26:47;;;;;;;7.93;3.72;;;20.00;99.90;;;;;;6166973;23;20040;-80
2022/06/05 10:29:45;;;;;;;4.90;3.95;;;19.70;99.90;;;;;;6185447;23;20283;-82
2022/06/05 10:32:45;;;;;;;8.30;4.93;;;19.30;99.90;;;;;;6188275;23;20340;-82
2022/06/05 10:35:56;;;;;;;9.85;6.05;;;18.90;99.90;;;;;;6165740;23;20029;-80
2022/06/05 10:39:07;;;;;;;8.65;5.72;;;18.70;99.90;;;;;;6186082;23;20086;-81
2022/06/05 10:41:57;;;;;;;11.52;5.85;;;18.50;99.90;;;;;;6165658;23;20056;-80
2022/06/05 10:45:10;;;;;;;8.38;6.60;;;18.40;99.90;;;;;;6166270;23;20092;-83
2022/06/05 10:47:57;;;;;;;9.40;6.72;;;18.30;99.90;;;;;;6186329;23;20021;-81
2022/06/05 10:51:03;;;;;;;9.10;6.95;;;18.20;99.90;;;;;;6165488;23;20025;-80
2022/06/05 10:53:57;;;;;;;16.08;7.32;;;18.10;99.90;;;;;;6182037;23;20032;-81
2022/06/05 10:57:03;;;;;;;9.35;7.05;;;18.10;99.90;;;;;;6184455;23;20029;-81
2022/06/05 11:00:19;;;;;;;9.43;6.68;;;18.10;99.90;;;;;;6186036;23;20025;-81
2022/06/05 11:03:28;;;;;;;8.27;5.65;;;18.00;99.90;;;;;;6185955;23;20029;-80
2022/06/05 11:06:56;;;;;;;9.40;6.43;;;18.00;99.90;;;;;;6163983;23;20365;-82
2022/06/05 11:10:09;;;;;;;11.25;5.65;;;18.10;99.90;;;;;;6182284;23;20120;-80
2022/06/05 11:16:38;;;;;;;8.65;4.78;;;18.00;99.90;;;;;;6186150;23;20104;-82
2022/06/05 11:19:48;;;;;;;10.53;5.20;;;18.10;99.90;;;;;;6163288;23;20104;-83
2022/06/05 11:22:52;;;;;;;5.95;3.95;;;18.20;99.90;;;;;;6182822;23;20083;-82
2022/06/05 11:25:54;;;;;;;5.20;3.40;;;18.50;99.90;;;;;;6161736;23;20143;-82
2022/06/05 11:29:21;;;;;;;6.82;3.80;;;19.00;99.90;;;;;;6190464;23;20025;-84
2022/06/05 11:32:24;;;;;;;5.55;3.28;;;20.00;99.90;;;;;;6197340;23;20029;-82
2022/06/05 11:35:25;;;;;;;5.00;2.55;;;22.40;99.90;;;;;;6194233;23;20025;-83
2022/06/05 11:38:33;;;;;;;7.38;2.72;;;23.60;99.90;;;;;;6187373;23;20029;-83
2022/06/05 11:41:39;;;;;;;5.63;2.15;;;24.70;99.90;;;;;;6179620;23;20021;-82
2022/06/05 11:44:38;;;;;;;4.50;2.10;;;24.40;99.90;;;;;;6192643;23;20049;-84
2022/06/05 11:47:40;;;;;;;5.15;2.60;;;24.70;99.90;;;;;;6174108;23;20039;-82
2022/06/05 11:50:34;;;;;;;6.43;2.20;;;24.90;99.90;;;;;;6194203;23;20029;-84
2022/06/05 11:53:30;;;;;;;4.05;1.90;;;24.80;99.90;;;;;;6166916;23;20029;-81
2022/06/05 11:56:54;;;;;;;6.78;2.47;;;23.70;99.90;;;;;;6183020;23;20025;-83
2022/06/05 12:00:31;;;;;;;7.00;2.20;;;22.60;99.90;;;;;;6182459;23;20032;-81
2022/06/05 12:03:28;;;;;;;6.57;2.05;;;22.60;99.90;;;;;;6157542;23;20055;-84
2022/06/05 12:06:39;;;;;;;3.40;2.00;;;22.20;99.90;;;;;;6184017;23;20074;-84
2022/06/05 12:09:31;;;;;;;5.28;2.42;;;22.20;99.90;;;;;;6186105;23;20024;-84
2022/06/05 12:13:10;;;;;;;4.70;2.25;;;21.90;99.90;;;;;;6164484;23;20029;-84
2022/06/05 12:16:08;;;;;;;5.40;2.13;;;21.50;99.90;;;;;;6147829;23;20025;-85
2022/06/05 12:19:24;;;;;;;6.55;2.63;;;21.20;99.90;;;;;;6164433;23;20360;-83
2022/06/05 12:22:27;;;;;;;8.13;2.90;;;21.00;99.90;;;;;;6190163;23;20087;-88
2022/06/05 12:25:34;;;;;;;4.30;2.42;;;21.00;99.90;;;;;;6162704;23;20036;-81
2022/06/05 12:28:32;;;;;;;8.07;2.50;;;21.00;99.90;;;;;;6186371;23;20060;-83
2022/06/05 12:31:39;;;;;;;6.20;2.60;;;21.20;99.90;;;;;;6184885;23;20036;-84
2022/06/05 12:34:37;;;;;;;7.28;2.03;;;21.90;99.90;;;;;;6184654;23;20029;-81
2022/06/05 12:37:36;;;;;;;4.82;2.42;;;23.30;99.90;;;;;;6162889;23;20259;-84
2022/06/05 12:40:37;;;;;;;7.07;3.40;;;23.90;99.90;;;;;;6165096;23;20028;-83
2022/06/05 12:43:40;;;;;;;5.65;2.42;;;22.60;99.90;;;;;;6185795;23;20060;-84
2022/06/05 12:46:49;;;;;;;7.38;2.47;;;21.60;99.90;;;;;;6165167;23;20029;-84
2022/06/05 12:49:40;;;;;;;8.32;2.40;;;21.50;99.90;;;;;;6188531;23;20025;-85
2022/06/05 12:52:41;;;;;;;9.15;2.67;;;21.40;99.90;;;;;;6183849;23;20033;-87
2022/06/05 12:55:36;;;;;;;8.30;2.67;;;22.00;99.90;;;;;;6185824;23;20044;-82
2022/06/05 12:58:43;;;;;;;6.38;1.88;;;23.10;99.90;;;;;;6186383;23;20032;-83
2022/06/05 13:01:46;;;;;;;6.10;2.08;;;23.70;99.90;;;;;;6166353;23;20025;-82
2022/06/05 13:05:05;;;;;;;6.55;2.65;;;22.80;99.90;;;;;;6185693;23;20119;-84
2022/06/05 13:08:02;;;;;;;6.65;2.70;;;22.40;99.90;;;;;;6186456;23;20033;-85
2022/06/05 13:11:02;;;;;;;9.65;2.40;;;22.30;99.90;;;;;;6186127;23;20025;-84
2022/06/05 13:14:04;;;;;;;3.60;2.30;;;22.50;99.90;;;;;;6184013;23;20332;-85
2022/06/05 13:17:13;;;;;;;5.28;2.33;;;23.10;99.90;;;;;;6182642;23;20125;-84
2022/06/05 13:20:13;;;;;;;3.35;2.22;;;23.00;99.90;;;;;;6185020;23;20066;-84
2022/06/05 13:23:28;;;;;;;3.45;2.05;;;22.70;99.90;;;;;;6148643;23;20433;-83
2022/06/05 13:26:22;;;;;;;5.03;2.25;;;22.80;99.90;;;;;;6164837;23;20393;-83
2022/06/05 13:29:45;;;;;;;8.00;2.15;;;23.20;99.90;;;;;;6164925;23;20033;-86
2022/06/05 13:33:01;;;;;;;5.22;2.45;;;23.10;99.90;;;;;;6187123;23;20080;-84
2022/06/05 13:36:18;;;;;;;5.20;2.50;;;22.80;99.90;;;;;;6189207;23;20037;-84
2022/06/05 13:39:27;;;;;;;6.25;2.70;;;22.40;99.90;;;;;;6175674;23;20029;-84
2022/06/05 13:42:23;;;;;;;7.82;2.80;;;22.20;99.90;;;;;;6197520;23;20028;-82
2022/06/05 13:45:31;;;;;;;4.45;2.70;;;22.10;99.90;;;;;;6176055;23;20029;-82
2022/06/05 13:48:27;;;;;;;7.55;2.45;;;22.00;99.90;;;;;;6179752;23;20029;-84
2022/06/05 13:51:25;;;;;;;6.95;2.95;;;22.10;99.90;;;;;;6196406;23;20025;-83
2022/06/05 13:54:25;;;;;;;6.95;2.95;;;22.10;99.90;;;;;;6203776;23;20013;-82
2022/06/05 13:57:29;;;;;;;9.02;2.88;;;21.90;99.90;;;;;;6188228;23;20141;-82
2022/06/05 14:00:41;;;;;;;5.60;3.15;;;22.00;99.90;;;;;;6177569;23;20028;-83
2022/06/05 14:03:39;;;;;;;5.72;2.72;;;21.90;99.90;;;;;;6197332;23;20040;-84
2022/06/05 14:06:40;;;;;;;4.80;2.25;;;21.70;99.90;;;;;;6189866;23;20036;-87
2022/06/05 14:09:34;;;;;;;7.15;2.80;;;21.50;99.90;;;;;;6187098;23;20025;-85
2022/06/05 14:12:31;;;;;;;4.75;2.65;;;21.30;99.90;;;;;;6164235;23;20029;-88
2022/06/05 14:15:39;;;;;;;3.92;2.42;;;21.20;99.90;;;;;;6184430;23;20406;-83
2022/06/05 14:18:45;;;;;;;8.18;2.80;;;21.10;99.90;;;;;;6185704;23;20111;-83
2022/06/05 14:21:38;;;;;;;5.30;2.75;;;21.10;99.90;;;;;;6166373;23;20021;-82
2022/06/05 14:24:46;;;;;;;4.55;2.58;;;21.00;99.90;;;;;;6151318;23;20025;-83
2022/06/05 14:27:35;;;;;;;6.55;2.25;;;21.00;99.90;;;;;;6162957;23;20025;-84
2022/06/05 14:30:29;;;;;;;4.93;3.17;;;20.90;99.90;;;;;;6185177;23;20036;-83
2022/06/05 14:33:22;;;;;;;7.00;2.70;;;20.80;99.90;;;;;;6184068;23;20021;-86
2022/06/05 14:36:22;;;;;;;8.97;3.50;;;20.80;99.90;;;;;;6185844;23;20134;-82
2022/06/05 14:39:20;;;;;;;7.57;3.47;;;20.80;99.90;;;;;;6184034;23;20260;-86
2022/06/05 14:42:37;;;;;;;4.45;3.38;;;21.00;99.90;;;;;;6184947;23;20036;-83
2022/06/05 14:45:48;;;;;;;5.30;2.95;;;21.00;99.90;;;;;;6163703;23;20040;-81
2022/06/05 14:48:44;;;;;;;6.32;3.10;;;20.80;99.90;;;;;;6185617;23;20556;-81
2022/06/05 14:51:32;;;;;;;8.60;4.50;;;20.60;99.90;;;;;;6164859;23;20025;-83
2022/06/05 14:58:02;;;;;;;7.82;3.72;;;20.50;99.90;;;;;;6185693;23;20297;-81
2022/06/05 15:01:11;;;;;;;5.78;2.47;;;20.60;99.90;;;;;;6183913;23;20033;-85
2022/06/05 15:04:14;;;;;;;7.35;4.70;;;20.50;99.90;;;;;;6163665;23;20328;-83
2022/06/05 15:07:34;;;;;;;5.95;3.08;;;20.50;99.90;;;;;;6182716;23;20032;-85
2022/06/05 15:10:32;;;;;;;5.50;2.83;;;20.50;99.90;;;;;;6184752;23;20033;-82
2022/06/05 15:13:23;;;;;;;5.72;3.85;;;20.50;99.90;;;;;;6185584;23;20024;-85
2022/06/05 15:16:20;;;;;;;9.57;4.30;;;20.20;99.90;;;;;;6183785;23;20293;-87
2022/06/05 15:19:43;;;;;;;11.20;4.75;;;19.70;99.90;;;;;;6184031;23;20457;-81
2022/06/05 15:23:07;;;;;;;6.03;3.50;;;19.20;99.90;;;;;;6186368;23;20039;-81
2022/06/05 15:26:14;;;;;;;4.65;3.53;;;19.00;99.90;;;;;;6182530;23;20036;-83
2022/06/05 15:29:04;;;;;;;8.38;5.00;;;18.90;99.90;;;;;;6182487;23;20031;-81
2022/06/05 15:31:56;;;;;;;10.18;6.53;;;18.80;99.90;;;;;;6183641;23;20021;-83
2022/06/05 15:35:22;;;;;;;8.02;4.75;;;18.80;99.90;;;;;;6164962;23;20436;-80
2022/06/05 15:38:15;;;;;;;7.97;4.50;;;18.70;99.90;;;;;;6035296;23;20031;-82
2022/06/05 15:58:50;;;;;;;5.10;2.22;;;17.10;99.90;;;;;;6173695;23;20025;-83
2022/06/05 16:01:43;;;;;;;4.25;2.20;;;17.20;99.90;;;;;;6168733;23;20274;-85
2022/06/05 16:04:32;;;;;;;;;;;17.40;99.90;;;;;;6163208;23;20040;-84
2022/06/05 16:07:24;;;;;;;5.57;2.05;;;17.70;99.90;;;;;;6183260;23;19964;-84
2022/06/05 16:10:22;;;;;;;;;;;17.90;99.90;;;;;;6164624;23;20032;-83
2022/06/05 16:13:15;;;;;;;4.57;1.80;;;18.00;99.90;;;;;;6183856;23;20421;-84
2022/06/05 16:16:08;;;;;;;7.22;1.50;;;18.00;99.90;;;;;;6161882;23;20531;-84
2022/06/05 16:19:11;;;;;;;5.05;1.45;;;18.20;99.90;;;;;;6183908;23;20147;-85
2022/06/05 16:21:58;;;;;;;;;;;18.50;99.90;;;;;;6162204;23;20025;-84
2022/06/05 16:24:57;;;;;;;6.35;2.13;;;18.60;99.90;;;;;;6163431;23;19995;-86
2022/06/05 16:27:52;;;;;;;4.82;1.80;;;18.70;99.90;;;;;;6162144;23;20039;-83